logo
Search for airport 
image banner adimage banner adimage banner ad
image banner ad

MZCS - Cisco Heliport

Located in , Belize

ICAO - , IATA -

Data provided by Airmate  

General information

Coordinates: N17°29'47" W88°14'5"
Elevation is 16 feet MSL.
 
View others Airports in Belize District

Operational data

Special qualification required
Current time UTC:
Current local time:
METAR: MZBZ 251700Z 06007KT 9999 TS VCSH FEW010CB BKN018 30/29 A3002 Q1016 TEMPO 5000 TSRA RMK VCSH-SW CB-S LR-2
TAF: TAF MZBZ 251610Z 2518/2618 09007KT 9999 SCT022 TEMPO 2518/2524 5000 SHRA BKN014 PROB30 TEMPO 2518/2522 4000 TSRA FEW010CB SCT014 PROB40 TEMPO 2608/2618 10015G25KT 3000 TSRA SCT010CB SCT014 BKN045
View NOTAMs / SUP AIP / TFR affecting this airport [VIEW]
Communications frequencies: [VIEW]

Runways:

Airport contact information

Address: Belize

Satellite view of MZCS